Time;durP1;ratioP1;P1;durP2;ratioP2;P2;SDS_P1;SDS_P2;PMS_P1;PMS_P2;Temp;Humidity;BMP_temperature;BMP_pressure;BME280_temperature;BME280_humidity;BME280_pressure;Samples;Min_cycle;Max_cycle;Signal;HPM_P1;HPM_P2
2022/02/02 00:02:34;;;;;;;2.30;2.20;;;;;;;2.12;100.00;96284.75;4902231;28;20730;-51
2022/02/02 00:05:16;;;;;;;2.57;2.47;;;;;;;2.13;100.00;96288.19;4945423;28;20774;-49
2022/02/02 00:07:51;;;;;;;3.47;2.63;;;;;;;2.23;100.00;96307.19;4939804;28;20504;-51
2022/02/02 00:10:41;;;;;;;2.80;2.60;;;;;;;2.21;100.00;96300.47;4945444;28;20294;-52
2022/02/02 00:13:27;;;;;;;4.10;2.67;;;;;;;2.26;100.00;96313.91;4944260;28;20306;-51
2022/02/02 00:16:03;;;;;;;4.60;2.83;;;;;;;2.38;100.00;96309.25;4944148;28;20218;-49
2022/02/02 00:18:46;;;;;;;3.03;2.83;;;;;;;2.41;100.00;96317.63;4902766;28;20702;-49
2022/02/02 00:21:21;;;;;;;3.17;2.83;;;;;;;2.47;100.00;96321.41;4950313;28;20206;-51
2022/02/02 00:23:54;;;;;;;2.60;2.40;;;;;;;2.52;100.00;96313.09;4942128;28;20265;-52
2022/02/02 00:26:27;;;;;;;3.17;2.23;;;;;;;2.56;100.00;96294.34;4950306;28;20265;-47
2022/02/02 00:29:02;;;;;;;2.10;2.00;;;;;;;2.70;100.00;96287.69;4945240;28;20554;-50
2022/02/02 00:31:36;;;;;;;2.53;2.30;;;;;;;2.73;100.00;96305.69;4946990;28;20209;-51
2022/02/02 00:34:08;;;;;;;2.53;2.33;;;;;;;2.69;100.00;96295.69;4903169;28;20255;-53
2022/02/02 00:36:48;;;;;;;2.80;2.60;;;;;;;2.77;100.00;96287.88;4948635;28;20761;-51
2022/02/02 00:39:16;;;;;;;3.00;2.80;;;;;;;2.73;100.00;96297.84;4952278;28;20206;-49
2022/02/02 00:41:44;;;;;;;2.57;2.47;;;;;;;2.84;100.00;96286.28;4952136;28;20214;-47
2022/02/02 00:44:15;;;;;;;2.30;2.13;;;;;;;2.87;100.00;96290.38;4953409;28;20318;-49
2022/02/02 00:46:44;;;;;;;3.93;2.80;;;;;;;2.84;100.00;96290.69;4952505;28;20207;-54
2022/02/02 00:49:13;;;;;;;3.37;3.03;;;;;;;2.88;100.00;96294.63;4913736;28;20734;-52
2022/02/02 00:51:45;;;;;;;5.00;2.83;;;;;;;2.92;100.00;96288.09;4951690;28;20622;-53
2022/02/02 00:54:15;;;;;;;5.20;2.53;;;;;;;2.85;100.00;96281.88;4957014;28;20348;-55
2022/02/02 00:56:43;;;;;;;2.43;2.27;;;;;;;2.86;100.00;96283.50;4951508;28;20258;-50
2022/02/02 00:59:13;;;;;;;3.10;2.80;;;;;;;2.88;100.00;96295.47;4950208;28;20690;-51
2022/02/02 01:01:41;;;;;;;3.20;2.90;;;;;;;2.87;100.00;96306.06;4949968;28;20237;-51
2022/02/02 01:04:10;;;;;;;3.07;2.87;;;;;;;2.83;100.00;96299.53;4952734;28;20433;-49
2022/02/02 01:06:39;;;;;;;3.03;2.83;;;;;;;2.86;100.00;96310.50;4908274;28;20350;-49
2022/02/02 01:09:23;;;;;;;2.30;2.20;;;;;;;2.77;100.00;96300.97;4957337;28;20238;-51
2022/02/02 01:12:31;;;;;;;2.80;2.60;;;;;;;2.87;100.00;96298.22;4925109;28;20217;-54
2022/02/02 01:16:04;;;;;;;2.40;2.30;;;;;;;2.75;100.00;96310.75;4951895;28;20581;-51
2022/02/02 01:18:26;;;;;;;2.60;2.40;;;;;;;2.87;100.00;96322.59;4953836;28;20669;-50
2022/02/02 01:20:58;;;;;;;2.00;1.90;;;;;;;2.85;100.00;96308.03;4914627;28;20237;-54
2022/02/02 01:28:58;;;;;;;2.57;2.37;;;;;;;2.90;100.00;96297.91;4956517;28;20206;-50
2022/02/02 01:31:27;;;;;;;4.00;2.23;;;;;;;2.88;100.00;96292.00;4950940;28;20471;-52
2022/02/02 01:33:56;;;;;;;2.87;2.40;;;;;;;2.92;100.00;96295.16;4954753;28;20248;-49
2022/02/02 01:36:24;;;;;;;2.37;2.13;;;;;;;2.88;100.00;96289.41;4910367;28;21038;-52
2022/02/02 01:38:53;;;;;;;4.13;2.27;;;;;;;3.00;100.00;96300.41;4956216;28;20741;-50
2022/02/02 01:41:28;;;;;;;3.13;2.10;;;;;;;2.94;100.00;96303.66;4951168;28;20228;-47
2022/02/02 01:44:07;;;;;;;3.10;2.80;;;;;;;2.66;100.00;96294.22;4953493;28;20225;-50
2022/02/02 01:46:38;;;;;;;2.77;2.30;;;;;;;2.69;100.00;96311.38;4951893;28;20543;-49
2022/02/02 01:52:11;;;;;;;5.07;2.77;;;;;;;2.74;100.00;96307.34;4904620;28;20285;-54
2022/02/02 01:54:53;;;;;;;4.03;2.67;;;;;;;2.71;100.00;96309.44;4891538;28;20500;-48
2022/02/02 01:57:44;;;;;;;8.53;3.67;;;;;;;2.72;100.00;96298.00;4948095;28;20272;-49
2022/02/02 02:00:14;;;;;;;4.80;2.40;;;;;;;2.78;100.00;96293.94;4952389;28;20678;-48
2022/02/02 02:02:43;;;;;;;3.27;3.07;;;;;;;2.78;100.00;96270.41;4928133;28;20242;-47
2022/02/02 02:05:12;;;;;;;4.07;2.70;;;;;;;2.93;100.00;96281.88;4952576;28;20574;-54
2022/02/02 02:07:41;;;;;;;3.00;2.67;;;;;;;2.93;100.00;96281.09;4943923;28;20211;-48
2022/02/02 02:10:09;;;;;;;3.07;2.53;;;;;;;2.88;100.00;96276.31;4907847;28;20368;-50
2022/02/02 02:12:46;;;;;;;5.37;2.80;;;;;;;3.00;100.00;96275.03;4948209;28;20203;-47
2022/02/02 02:15:16;;;;;;;4.30;2.73;;;;;;;3.02;100.00;96273.09;4952079;28;20261;-48
2022/02/02 02:17:46;;;;;;;5.77;3.17;;;;;;;3.06;100.00;96265.75;4928183;28;20475;-49
2022/02/02 02:20:14;;;;;;;5.57;3.10;;;;;;;2.97;100.00;96262.28;4952858;28;20242;-49
2022/02/02 02:22:44;;;;;;;5.27;2.73;;;;;;;3.03;100.00;96261.66;4949036;28;20260;-52
2022/02/02 02:25:20;;;;;;;2.60;2.33;;;;;;;3.01;100.00;96263.59;4949526;28;20580;-50
2022/02/02 02:27:49;;;;;;;3.23;2.37;;;;;;;2.98;100.00;96263.91;4918007;28;20513;-49
2022/02/02 02:30:26;;;;;;;3.93;2.80;;;;;;;2.97;100.00;96251.81;4950351;28;20277;-51
2022/02/02 02:39:20;;;;;;;4.30;2.37;;;;;;;3.01;100.00;96263.59;4947467;28;20210;-49
2022/02/02 02:55:54;;;;;;;3.27;1.77;;;;;;;2.39;100.00;96310.88;4947593;28;20305;-50
2022/02/02 03:01:19;;;;;;;5.47;2.07;;;;;;;2.27;100.00;96305.91;4931935;28;20515;-48
2022/02/02 03:31:37;;;;;;;2.90;1.47;;;;;;;2.11;100.00;96314.47;4947652;28;21003;-55
2022/02/02 03:51:21;;;;;;;4.43;1.90;;;;;;;2.23;100.00;96335.13;4938084;28;20233;-48
2022/02/02 03:56:40;;;;;;;4.23;2.50;;;;;;;2.28;100.00;96328.47;4939456;28;20682;-52
2022/02/02 04:02:16;;;;;;;4.00;1.70;;;;;;;2.36;100.00;96343.41;5033803;27;20553;-55
2022/02/02 04:04:55;;;;;;;2.83;1.90;;;;;;;2.33;100.00;96335.88;5070297;28;20244;-51
2022/02/02 04:07:30;;;;;;;5.10;2.47;;;;;;;2.40;100.00;96326.44;5043844;28;20321;-52
2022/02/02 04:10:03;;;;;;;2.50;1.90;;;;;;;2.56;100.00;96320.47;5063037;28;20199;-52
2022/02/02 04:12:43;;;;;;;5.20;2.17;;;;;;;2.53;100.00;96322.56;5038278;28;20258;-53
2022/02/02 04:37:52;;;;;;;4.27;2.90;;;;;;;2.81;100.00;96344.13;5062831;28;20682;-51
2022/02/02 04:51:44;;;;;;;6.60;2.43;;;;;;;2.55;100.00;96341.53;5061847;28;20223;-52
2022/02/02 04:54:29;;;;;;;7.70;2.57;;;;;;;2.56;100.00;96351.88;5062144;28;20254;-50
2022/02/02 04:59:51;;;;;;;3.83;2.60;;;;;;;2.43;100.00;96378.41;5063250;28;20256;-50
2022/02/02 05:08:05;;;;;;;5.17;2.70;;;;;;;2.48;100.00;96367.50;5058003;28;20203;-47
2022/02/02 05:10:42;;;;;;;4.07;2.33;;;;;;;2.45;100.00;96363.41;5027770;28;20734;-49
2022/02/02 05:16:17;;;;;;;5.53;2.53;;;;;;;2.44;100.00;96374.00;5047407;28;20207;-50
2022/02/02 05:22:09;;;;;;;2.53;1.80;;;;;;;2.52;100.00;96368.00;5024502;28;20486;-47
2022/02/02 05:42:30;;;;;;;6.83;2.57;;;;;;;2.22;100.00;96370.91;5029858;28;20736;-55
2022/02/02 05:44:57;;;;;;;4.47;2.27;;;;;;;2.25;100.00;96357.53;5029482;28;20330;-50
2022/02/02 05:50:34;;;;;;;3.87;2.50;;;;;;;2.48;100.00;96380.59;4984315;28;20697;-51
2022/02/02 05:53:03;;;;;;;2.33;2.13;;;;;;;2.70;100.00;96381.88;5044967;28;20650;-55
2022/02/02 05:55:36;;;;;;;2.90;2.00;;;;;;;2.75;100.00;96378.78;5029762;28;20855;-51
2022/02/02 05:58:07;;;;;;;4.03;2.67;;;;;;;2.79;100.00;96387.94;5033067;28;20207;-50
2022/02/02 06:00:37;;;;;;;7.73;3.17;;;;;;;2.88;100.00;96392.28;5043649;28;20252;-45
2022/02/02 06:03:10;;;;;;;3.10;2.47;;;;;;;2.87;100.00;96388.03;5034413;28;20235;-50
2022/02/02 06:05:41;;;;;;;4.60;3.33;;;;;;;2.81;100.00;96399.09;5003360;28;20966;-49
2022/02/02 06:08:10;;;;;;;4.07;2.80;;;;;;;2.79;100.00;96411.50;5002245;28;22362;-49
2022/02/02 06:10:39;;;;;;;4.53;2.20;;;;;;;2.87;100.00;96405.50;5016276;28;20619;-50
2022/02/02 06:13:09;;;;;;;3.27;2.97;;;;;;;2.92;100.00;96415.53;5043113;28;20311;-47
2022/02/02 06:15:37;;;;;;;4.10;2.43;;;;;;;3.01;100.00;96425.84;5006568;28;20465;-51
2022/02/02 06:18:06;;;;;;;5.83;3.00;;;;;;;2.96;100.00;96404.56;5026841;28;20520;-49
2022/02/02 06:20:36;;;;;;;4.37;3.20;;;;;;;3.08;100.00;96401.72;5046860;28;20206;-46
2022/02/02 06:23:11;;;;;;;7.67;3.10;;;;;;;2.99;100.00;96393.78;5030088;28;20384;-49
2022/02/02 06:25:43;;;;;;;7.30;3.67;;;;;;;3.04;100.00;96380.25;5010805;28;20506;-48
2022/02/02 06:28:21;;;;;;;3.30;2.47;;;;;;;3.05;100.00;96397.59;5048355;28;20260;-49
2022/02/02 06:30:55;;;;;;;12.07;3.70;;;;;;;2.89;100.00;96387.84;5015940;28;20222;-52
2022/02/02 06:33:43;;;;;;;4.27;3.03;;;;;;;3.06;100.00;96406.28;5047120;28;20229;-52
2022/02/02 06:36:12;;;;;;;10.00;3.23;;;;;;;3.13;100.00;96412.53;5047958;28;20510;-50
2022/02/02 06:38:41;;;;;;;10.63;4.07;;;;;;;3.16;100.00;96422.69;5046463;28;20272;-54
2022/02/02 06:41:10;;;;;;;8.40;3.43;;;;;;;3.13;100.00;96429.03;4999884;28;20486;-54
2022/02/02 06:43:39;;;;;;;8.63;3.93;;;;;;;3.01;100.00;96438.94;5044247;28;20215;-51
2022/02/02 06:46:07;;;;;;;7.70;3.40;;;;;;;2.99;100.00;96446.13;5027702;28;21790;-49
2022/02/02 06:48:37;;;;;;;6.07;3.43;;;;;;;3.02;100.00;96431.94;5033730;28;20298;-52
2022/02/02 06:51:11;;;;;;;7.97;3.10;;;;;;;3.14;100.00;96443.75;5046703;28;20586;-48
2022/02/02 06:53:50;;;;;;;7.50;3.00;;;;;;;3.09;100.00;96446.03;5046008;28;20222;-53
2022/02/02 06:56:34;;;;;;;9.50;3.00;;;;;;;3.18;100.00;96454.75;5010746;28;20214;-52
2022/02/02 06:59:21;;;;;;;6.00;2.87;;;;;;;3.12;100.00;96437.06;5044246;28;20502;-50
2022/02/02 07:02:02;;;;;;;3.27;2.90;;;;;;;2.93;100.00;96449.38;5037208;28;20300;-53
2022/02/02 07:04:52;;;;;;;5.53;2.63;;;;;;;2.67;100.00;96473.72;5034342;28;20258;-52
2022/02/02 07:07:34;;;;;;;6.47;3.20;;;;;;;2.46;100.00;96467.00;5048290;28;20639;-47
2022/02/02 07:10:14;;;;;;;4.70;2.47;;;;;;;2.25;100.00;96467.31;5032010;28;20432;-51
2022/02/02 07:12:55;;;;;;;7.80;3.00;;;;;;;2.08;100.00;96479.41;5007591;28;20234;-48
2022/02/02 07:15:31;;;;;;;4.17;2.83;;;;;;;2.02;100.00;96483.41;5048100;28;20303;-49
2022/02/02 07:18:18;;;;;;;6.37;2.90;;;;;;;2.06;100.00;96486.56;5011453;28;20634;-50
2022/02/02 07:20:57;;;;;;;8.20;3.03;;;;;;;2.03;100.00;96490.28;5041773;28;20373;-50
2022/02/02 07:23:40;;;;;;;6.20;3.10;;;;;;;1.97;100.00;96496.09;5047271;28;20285;-48
2022/02/02 07:29:04;;;;;;;5.47;2.93;;;;;;;2.02;100.00;96485.22;4994939;28;20356;-51
2022/02/02 07:31:47;;;;;;;4.83;2.70;;;;;;;2.13;100.00;96494.66;5047164;28;20349;-52
2022/02/02 07:34:26;;;;;;;7.27;3.20;;;;;;;2.14;100.00;96499.72;5012610;28;20219;-50
2022/02/02 07:36:59;;;;;;;5.13;2.97;;;;;;;2.19;100.00;96507.13;5043861;28;20291;-49
2022/02/02 07:39:27;;;;;;;7.83;3.30;;;;;;;2.27;100.00;96515.03;5031092;28;20215;-53
2022/02/02 07:42:00;;;;;;;5.67;3.67;;;;;;;2.34;100.00;96517.06;5040099;28;20231;-52
2022/02/02 07:44:32;;;;;;;5.30;3.20;;;;;;;2.47;100.00;96528.00;5010760;28;20228;-53
2022/02/02 07:47:06;;;;;;;4.93;3.50;;;;;;;2.48;100.00;96524.41;5040916;28;20800;-51
2022/02/02 07:49:38;;;;;;;3.50;3.03;;;;;;;2.59;100.00;96526.78;5011091;28;20320;-47
2022/02/02 07:52:10;;;;;;;6.17;3.20;;;;;;;2.57;100.00;96535.75;5046880;28;20731;-48
2022/02/02 07:54:40;;;;;;;5.50;3.43;;;;;;;2.56;100.00;96542.78;5046021;28;20308;-50
2022/02/02 07:57:26;;;;;;;4.37;3.13;;;;;;;2.51;100.00;96533.72;5047574;28;20231;-51
2022/02/02 07:59:56;;;;;;;10.23;3.10;;;;;;;2.73;100.00;96537.69;5001395;28;20227;-48
2022/02/02 08:02:37;;;;;;;10.00;4.10;;;;;;;3.02;100.00;96547.88;5046922;28;20227;-54
2022/02/02 08:05:08;;;;;;;5.53;2.73;;;;;;;3.04;100.00;96525.03;5008025;28;21285;-50
2022/02/02 08:07:41;;;;;;;5.37;3.70;;;;;;;3.13;100.00;96525.88;5045125;28;20218;-51
2022/02/02 08:10:14;;;;;;;12.40;3.10;;;;;;;3.11;100.00;96534.88;5027227;28;20432;-52
2022/02/02 08:12:46;;;;;;;5.37;3.13;;;;;;;3.06;100.00;96540.56;5046427;28;20219;-52
2022/02/02 08:15:17;;;;;;;5.27;2.97;;;;;;;3.00;100.00;96525.47;4963578;28;20230;-58
2022/02/02 08:17:48;;;;;;;7.43;2.93;;;;;;;2.98;100.00;96546.56;5030822;28;20230;-52
2022/02/02 08:20:17;;;;;;;6.00;2.90;;;;;;;3.09;100.00;96545.50;5042876;28;20202;-54
2022/02/02 08:22:45;;;;;;;6.70;2.97;;;;;;;3.13;100.00;96554.69;5031802;28;20214;-49
2022/02/02 08:25:24;;;;;;;8.43;3.37;;;;;;;3.11;100.00;96553.22;5045797;28;20576;-53
2022/02/02 08:27:54;;;;;;;4.83;2.77;;;;;;;3.17;100.00;96556.03;5046244;28;20627;-51
2022/02/02 08:30:23;;;;;;;5.60;3.00;;;;;;;3.16;100.00;96562.22;5001271;28;22173;-51
2022/02/02 08:32:57;;;;;;;2.93;2.63;;;;;;;3.12;100.00;96555.66;5049314;28;20203;-53
2022/02/02 08:35:27;;;;;;;10.43;3.63;;;;;;;3.23;100.00;96562.44;5045745;28;20241;-51
2022/02/02 08:38:03;;;;;;;8.57;3.47;;;;;;;3.25;100.00;96564.94;5029749;28;20313;-54
2022/02/02 08:40:36;;;;;;;5.37;2.87;;;;;;;3.53;100.00;96570.00;5042703;28;20428;-55
2022/02/02 08:43:09;;;;;;;4.30;2.63;;;;;;;3.79;100.00;96574.41;5048429;28;20741;-50
2022/02/02 08:45:41;;;;;;;5.17;2.47;;;;;;;4.00;100.00;96566.16;5042886;28;20310;-49
2022/02/02 08:48:15;;;;;;;6.17;3.00;;;;;;;3.91;100.00;96573.16;5004434;28;20218;-51
2022/02/02 08:50:47;;;;;;;8.77;3.57;;;;;;;3.64;100.00;96576.78;5049870;28;20264;-50
2022/02/02 08:53:30;;;;;;;11.03;3.80;;;;;;;3.73;100.00;96578.47;5004979;28;20617;-49
2022/02/02 08:56:11;;;;;;;3.90;2.60;;;;;;;3.80;100.00;96583.91;5052437;28;20202;-48
2022/02/02 08:58:43;;;;;;;7.93;3.13;;;;;;;3.86;100.00;96597.22;5032882;28;20260;-48
2022/02/02 09:01:16;;;;;;;4.07;2.90;;;;;;;4.25;100.00;96605.59;5048667;28;20652;-51
2022/02/02 09:06:31;;;;;;;3.60;2.83;;;;;;;3.99;100.00;96607.28;5047343;28;20195;-53
2022/02/02 09:09:09;;;;;;;4.23;2.53;;;;;;;4.35;100.00;96614.94;5032089;28;20215;-51
2022/02/02 09:20:14;;;;;;;5.93;2.47;;;;;;;4.34;100.00;96646.59;5047077;28;20683;-54
2022/02/02 09:25:40;;;;;;;3.00;2.70;;;;;;;4.28;100.00;96652.47;5038393;28;20445;-50
2022/02/02 09:33:54;;;;;;;5.73;3.03;;;;;;;3.91;100.00;96670.13;5005355;28;20872;-53
2022/02/02 09:36:28;;;;;;;4.00;1.93;;;;;;;4.10;100.00;96669.09;5044714;28;20307;-50
2022/02/02 09:38:59;;;;;;;6.53;1.87;;;;;;;4.22;100.00;96672.28;5047928;28;20268;-54
2022/02/02 09:41:43;;;;;;;5.10;2.73;;;;;;;4.12;100.00;96664.50;5029077;28;20549;-54
2022/02/02 09:44:14;;;;;;;4.70;3.17;;;;;;;4.09;100.00;96670.06;5028406;28;20239;-50
2022/02/02 09:46:53;;;;;;;3.67;2.33;;;;;;;3.95;100.00;96673.28;5049233;28;20207;-52
2022/02/02 09:49:27;;;;;;;7.40;2.87;;;;;;;4.16;100.00;96670.28;5002633;28;20336;-56
2022/02/02 09:52:02;;;;;;;9.27;4.07;;;;;;;4.32;100.00;96680.84;5050578;28;20217;-56
2022/02/02 09:54:37;;;;;;;7.37;3.37;;;;;;;4.29;100.00;96683.78;5030873;28;20749;-54
2022/02/02 10:00:36;;;;;;;8.27;2.87;;;;;;;3.87;100.00;96702.88;5029315;28;20230;-50
2022/02/02 10:03:34;;;;;;;5.70;2.63;;;;;;;3.24;100.00;96707.28;5033190;28;20745;-54
2022/02/02 10:06:09;;;;;;;5.63;3.10;;;;;;;3.07;100.00;96707.13;5048469;28;20260;-52
2022/02/02 10:14:34;;;;;;;7.50;3.77;;;;;;;3.10;100.00;96700.78;4998951;28;20254;-53
2022/02/02 10:17:07;;;;;;;8.67;3.60;;;;;;;3.54;100.00;96694.75;5049606;28;20324;-48
2022/02/02 10:19:36;;;;;;;5.17;3.03;;;;;;;3.54;100.00;96692.97;5004409;28;20466;-53
2022/02/02 10:22:25;;;;;;;7.47;3.77;;;;;;;3.60;100.00;96676.66;5045241;28;20214;-50
2022/02/02 10:24:56;;;;;;;8.13;4.30;;;;;;;3.78;100.00;96693.31;4989373;28;20354;-52
2022/02/02 10:27:28;;;;;;;11.77;4.10;;;;;;;3.75;100.00;96700.50;5042062;28;20330;-56
2022/02/02 10:30:17;;;;;;;7.83;3.93;;;;;;;3.77;100.00;96695.09;5032208;28;20203;-54
2022/02/02 10:32:47;;;;;;;7.83;3.40;;;;;;;3.73;100.00;96691.97;5032958;28;20659;-56
2022/02/02 10:35:37;;;;;;;7.10;4.20;;;;;;;3.73;100.00;96691.97;5047010;28;20825;-52
2022/02/02 10:38:25;;;;;;;4.20;3.57;;;;;;;3.76;100.00;96690.81;5005885;28;20259;-55
2022/02/02 10:41:04;;;;;;;6.23;3.13;;;;;;;3.86;100.00;96694.19;5042862;28;20241;-55
2022/02/02 10:43:36;;;;;;;9.17;2.73;;;;;;;3.89;100.00;96711.41;5045680;28;20321;-57
2022/02/02 10:46:09;;;;;;;6.43;3.57;;;;;;;4.03;100.00;96691.66;5033162;28;21476;-55
2022/02/02 10:48:42;;;;;;;4.27;3.20;;;;;;;4.27;100.00;96700.66;5038624;28;20274;-54
2022/02/02 10:51:18;;;;;;;8.17;3.57;;;;;;;4.32;100.00;96701.81;5039844;28;20215;-53
2022/02/02 10:54:08;;;;;;;6.30;3.03;;;;;;;4.49;100.00;96697.47;5004675;28;20246;-56
2022/02/02 10:56:45;;;;;;;6.87;2.63;;;;;;;4.42;100.00;96690.41;5044469;28;20231;-51
2022/02/02 10:59:36;;;;;;;6.13;3.13;;;;;;;4.59;100.00;96673.75;5045608;28;20231;-52
2022/02/02 11:07:37;;;;;;;4.40;2.23;;;;;;;5.25;100.00;96688.00;5046644;28;20214;-53
2022/02/02 11:10:06;;;;;;;8.10;2.97;;;;;;;5.45;100.00;96696.41;5001745;28;20851;-55
2022/02/02 11:12:38;;;;;;;5.73;2.00;;;;;;;5.52;100.00;96700.00;5047060;28;20214;-55
2022/02/02 11:15:17;;;;;;;5.20;2.30;;;;;;;5.46;100.00;96698.84;5046483;28;20303;-56
2022/02/02 11:17:50;;;;;;;3.93;2.70;;;;;;;5.25;100.00;96706.41;5030400;28;20240;-51
2022/02/02 11:20:19;;;;;;;4.23;3.13;;;;;;;5.38;100.00;96693.59;5028225;28;20318;-51
2022/02/02 11:22:49;;;;;;;2.93;1.97;;;;;;;5.67;100.00;96689.66;5039718;28;20265;-51
2022/02/02 11:25:33;;;;;;;3.23;2.10;;;;;;;5.70;100.00;96699.03;5004307;28;20356;-52
2022/02/02 11:28:05;;;;;;;3.43;2.63;;;;;;;5.52;100.00;96689.50;5047847;28;20206;-48
2022/02/02 11:30:42;;;;;;;5.17;2.50;;;;;;;5.47;100.00;96703.13;5048127;28;20211;-51
2022/02/02 11:33:22;;;;;;;6.93;2.10;;;;;;;5.06;100.00;96717.03;5034301;28;20206;-50
2022/02/02 11:35:52;;;;;;;3.33;2.53;;;;;;;5.02;100.00;96718.34;5026798;28;20566;-54
2022/02/02 11:38:39;;;;;;;4.47;2.30;;;;;;;4.49;100.00;96718.47;5045784;28;20213;-49
2022/02/02 11:41:30;;;;;;;3.10;2.37;;;;;;;3.84;100.00;96737.25;5003674;28;20789;-54
2022/02/02 11:44:07;;;;;;;7.00;1.63;;;;;;;3.21;100.00;96760.75;5047446;28;20644;-54
2022/02/02 11:46:41;;;;;;;3.33;2.10;;;;;;;2.93;100.00;96768.63;5044182;28;20202;-47
2022/02/02 11:49:15;;;;;;;2.70;2.50;;;;;;;2.77;100.00;96769.25;5044935;28;20207;-49
2022/02/02 11:51:45;;;;;;;2.70;2.10;;;;;;;2.93;100.00;96771.25;5032903;28;20467;-53
2022/02/02 11:54:14;;;;;;;2.13;1.90;;;;;;;2.69;100.00;96766.56;5046282;28;20258;-52
2022/02/02 11:57:16;;;;;;;2.40;1.83;;;;;;;2.63;100.00;96761.91;5000241;28;20240;-47
2022/02/02 12:00:18;;;;;;;3.50;2.13;;;;;;;2.65;100.00;96773.88;5044508;28;20223;-51
2022/02/02 12:03:09;;;;;;;2.93;2.50;;;;;;;2.87;100.00;96782.31;5027821;28;20751;-57
2022/02/02 12:08:45;;;;;;;7.73;1.90;;;;;;;2.67;100.00;96797.25;5026539;28;20620;-49
2022/02/02 12:35:56;;;;;;;3.67;2.10;;;;;;;3.25;100.00;96827.56;5003297;28;20215;-48
2022/02/02 12:45:37;;;;;;;3.33;1.90;;;;;;;3.67;100.00;96830.63;4997923;28;20780;-51
2022/02/02 12:48:06;;;;;;;2.50;1.87;;;;;;;3.74;100.00;96829.03;5044483;28;20203;-50
2022/02/02 12:53:52;;;;;;;5.97;2.30;;;;;;;4.33;100.00;96828.56;5015606;28;20450;-52
2022/02/02 12:56:34;;;;;;;5.67;2.50;;;;;;;5.22;100.00;96823.09;5024644;28;20227;-46
2022/02/02 12:59:22;;;;;;;3.87;2.07;;;;;;;5.56;100.00;96827.47;5045614;28;20384;-54
2022/02/02 13:02:04;;;;;;;3.97;1.83;;;;;;;4.84;100.00;96830.50;4984162;28;20322;-50
2022/02/02 13:04:32;;;;;;;4.67;2.43;;;;;;;4.56;100.00;96825.44;5048922;28;20756;-52
2022/02/02 13:07:14;;;;;;;6.07;1.93;;;;;;;4.38;100.00;96831.53;5045372;28;20864;-53
2022/02/02 13:09:47;;;;;;;2.50;2.00;;;;;;;4.45;100.00;96839.63;5045078;28;20211;-50
2022/02/02 13:12:28;;;;;;;5.00;2.07;;;;;;;4.37;100.00;96850.88;5046783;28;20649;-52
2022/02/02 13:17:58;;;;;;;3.00;1.80;;;;;;;3.96;100.00;96837.44;5004594;28;20838;-52
2022/02/02 13:20:33;;;;;;;5.10;2.70;;;;;;;4.03;100.00;96849.81;5047616;28;20295;-51
2022/02/02 13:23:12;;;;;;;3.73;2.30;;;;;;;4.08;100.00;96844.09;5046331;28;20245;-50
2022/02/02 13:25:43;;;;;;;3.33;2.33;;;;;;;4.45;100.00;96840.44;5050392;28;20222;-53
2022/02/02 13:28:12;;;;;;;3.20;2.03;;;;;;;4.78;100.00;96835.38;5048756;28;20424;-50
2022/02/02 13:30:46;;;;;;;6.47;2.37;;;;;;;4.74;100.00;96851.63;5047767;28;20718;-52
2022/02/02 13:33:28;;;;;;;5.03;2.60;;;;;;;5.34;100.00;96852.53;5004962;28;20264;-51
2022/02/02 13:36:23;;;;;;;6.43;2.33;;;;;;;5.15;100.00;96851.00;5041972;28;20442;-54
2022/02/02 13:44:47;;;;;;;2.33;1.73;;;;;;;4.72;100.00;96871.91;5050156;28;20359;-53
2022/02/02 13:47:55;;;;;;;2.50;1.90;;;;;;;4.68;100.00;96884.53;5008585;28;20214;-54
2022/02/02 13:56:20;;;;;;;5.13;2.43;;;;;;;4.73;100.00;96899.81;5040801;28;20384;-52
2022/02/02 13:59:02;;;;;;;5.50;2.43;;;;;;;4.87;100.00;96901.06;5046658;28;20199;-48
2022/02/02 14:01:38;;;;;;;4.50;2.23;;;;;;;4.98;100.00;96902.59;5046729;28;20266;-54
2022/02/02 14:04:16;;;;;;;2.20;1.50;;;;;;;5.20;100.00;96922.25;5003531;28;20578;-47
2022/02/02 14:06:53;;;;;;;2.83;1.57;;;;;;;5.06;100.00;96902.63;5045865;28;20290;-52
2022/02/02 14:09:29;;;;;;;4.70;2.20;;;;;;;5.05;100.00;96914.13;5048986;28;20214;-56
2022/02/02 14:31:12;;;;;;;2.70;2.00;;;;;;;4.88;100.00;96955.22;5046877;28;20202;-56
2022/02/02 14:33:53;;;;;;;2.90;2.20;;;;;;;4.60;100.00;96950.09;5007293;28;20723;-55
2022/02/02 14:36:25;;;;;;;4.20;2.50;;;;;;;4.58;100.00;96957.31;5041008;28;20207;-55
2022/02/02 14:39:01;;;;;;;2.30;1.50;;;;;;;4.42;100.00;96963.22;4973830;28;22988;-54
2022/02/02 14:41:37;;;;;;;2.00;1.80;;;;;;;4.24;100.00;96958.78;5048903;28;20230;-53
2022/02/02 14:44:13;;;;;;;6.47;1.83;;;;;;;4.25;100.00;96968.31;5030991;28;20311;-54
2022/02/02 14:46:46;;;;;;;7.63;2.13;;;;;;;4.37;100.00;96966.28;5030192;28;20226;-53
2022/02/02 14:49:18;;;;;;;3.10;2.37;;;;;;;4.68;100.00;96975.56;5046166;28;21141;-52
2022/02/02 14:51:57;;;;;;;3.60;1.93;;;;;;;4.93;100.00;96979.22;5045682;28;20202;-48
2022/02/02 14:54:39;;;;;;;3.60;2.20;;;;;;;4.82;100.00;96980.28;5004240;28;20227;-48
2022/02/02 15:07:00;;;;;;;3.80;1.93;;;;;;;4.12;100.00;97004.56;5049626;28;20316;-57
2022/02/02 15:26:22;;;;;;;3.73;1.90;;;;;;;4.32;100.00;97029.69;5004131;28;20861;-52
2022/02/02 15:29:03;;;;;;;5.70;2.30;;;;;;;4.24;100.00;97041.91;5023561;28;20195;-53
2022/02/02 15:31:32;;;;;;;2.10;1.57;;;;;;;4.25;100.00;97047.00;5023600;28;20211;-51
2022/02/02 15:34:25;;;;;;;3.63;2.60;;;;;;;4.30;100.00;97043.94;4990368;28;20267;-52
2022/02/02 15:39:38;;;;;;;3.63;1.77;;;;;;;4.08;100.00;97053.03;4965236;28;21029;-54
2022/02/02 15:42:23;;;;;;;3.50;1.93;;;;;;;4.05;100.00;97068.09;5003833;28;20961;-54
2022/02/02 15:54:40;;;;;;;2.87;2.60;;;;;;;4.02;100.00;97063.13;5003691;28;20227;-51
2022/02/02 15:59:26;;;;;;;2.27;1.63;;;;;;;3.94;100.00;97097.09;5103130;27;21191;-53
2022/02/02 16:04:40;;;;;;;2.33;1.43;;;;;;;3.71;100.00;97096.63;5069680;27;21372;-50
2022/02/02 16:07:12;;;;;;;3.93;2.57;;;;;;;3.61;100.00;97084.38;5087387;27;20318;-55
2022/02/02 16:09:50;;;;;;;3.73;2.83;;;;;;;3.67;100.00;97116.22;5057536;27;20845;-50
2022/02/02 16:12:23;;;;;;;3.70;2.13;;;;;;;3.76;100.00;97121.44;5100227;27;20224;-55
2022/02/02 16:15:02;;;;;;;3.33;1.80;;;;;;;3.76;100.00;97126.69;5101229;27;20221;-49
2022/02/02 16:17:43;;;;;;;2.10;2.00;;;;;;;3.92;100.00;97120.00;5100791;27;20256;-54
2022/02/02 16:31:36;;;;;;;3.83;2.60;;;;;;;3.36;100.00;97100.72;5098329;27;20206;-51
2022/02/02 16:37:00;;;;;;;5.37;3.20;;;;;;;3.16;100.00;97103.38;5049442;27;20263;-53
2022/02/02 16:39:29;;;;;;;2.07;1.97;;;;;;;3.08;100.00;97118.94;5100555;27;20202;-53
2022/02/02 16:44:43;;;;;;;3.80;2.20;;;;;;;3.12;100.00;97128.16;5058285;27;20220;-51
2022/02/02 16:47:12;;;;;;;4.27;2.80;;;;;;;3.13;100.00;97128.00;5065423;27;22341;-57
2022/02/02 16:50:00;;;;;;;4.13;3.10;;;;;;;3.02;100.00;97144.69;5096407;27;20205;-54
2022/02/02 16:52:31;;;;;;;5.30;3.13;;;;;;;3.08;100.00;97151.16;5078306;27;20235;-53
2022/02/02 16:55:04;;;;;;;5.23;2.30;;;;;;;3.19;100.00;97158.88;5097538;27;20275;-55
2022/02/02 16:57:44;;;;;;;3.00;2.80;;;;;;;3.33;100.00;97157.63;5095795;27;20279;-55
2022/02/02 17:30:55;;;;;;;14.63;11.73;;;;;;;2.88;100.00;97232.31;5048249;27;20315;-46
2022/02/02 17:33:28;;;;;;;12.00;9.27;;;;;;;2.78;100.00;97244.50;5087416;28;20193;-54
2022/02/02 17:36:12;;;;;;;8.43;5.83;;;;;;;2.62;100.00;97239.78;5086117;28;20902;-49
2022/02/02 17:38:51;;;;;;;7.07;4.30;;;;;;;2.55;100.00;97241.28;5063526;28;20244;-50
2022/02/02 18:20:34;;;;;;;2.83;2.50;;;;;;;0.69;100.00;97297.13;5081669;27;20259;-45
2022/02/02 18:23:09;;;;;;;4.63;2.43;;;;;;;0.78;100.00;97298.22;5081924;28;20767;-51
2022/02/02 18:25:45;;;;;;;3.77;2.50;;;;;;;0.75;100.00;97301.06;5063657;28;20363;-53
2022/02/02 18:28:20;;;;;;;2.87;1.93;;;;;;;0.76;100.00;97304.47;5081212;28;20234;-55
2022/02/02 18:31:01;;;;;;;2.73;2.53;;;;;;;0.82;100.00;97302.22;5070326;27;20304;-49
2022/02/02 18:33:41;;;;;;;4.10;2.50;;;;;;;0.99;100.00;97306.13;5034120;27;20572;-52
2022/02/02 18:36:23;;;;;;;6.63;3.30;;;;;;;1.12;100.00;97303.38;5060066;28;20201;-50
2022/02/02 18:44:45;;;;;;;5.37;3.70;;;;;;;0.73;100.00;97318.59;5082503;28;20955;-48
2022/02/02 18:50:16;;;;;;;3.70;3.40;;;;;;;0.97;100.00;97317.66;5031506;27;20960;-48
2022/02/02 18:55:51;;;;;;;5.30;3.07;;;;;;;1.29;100.00;97351.66;5061126;28;20426;-48
2022/02/02 18:58:31;;;;;;;6.07;4.33;;;;;;;1.58;100.00;97345.06;5057699;28;20446;-57